sensor_id;sensor_type;location;lat;lon;timestamp;P1;durP1;ratioP1;P2;durP2;ratioP2
11100;SDS011;5604;50.722;7.078;2023-05-07T00:01:10;7.80;;;4.60;;
11100;SDS011;5604;50.722;7.078;2023-05-07T00:03:38;4.37;;;4.00;;
11100;SDS011;5604;50.722;7.078;2023-05-07T00:06:06;4.77;;;4.30;;
11100;SDS011;5604;50.722;7.078;2023-05-07T00:08:34;6.03;;;4.80;;
11100;SDS011;5604;50.722;7.078;2023-05-07T00:11:04;5.20;;;4.73;;
11100;SDS011;5604;50.722;7.078;2023-05-07T00:13:32;5.13;;;4.73;;
11100;SDS011;5604;50.722;7.078;2023-05-07T00:16:02;5.97;;;5.40;;
11100;SDS011;5604;50.722;7.078;2023-05-07T00:18:30;7.17;;;4.83;;
11100;SDS011;5604;50.722;7.078;2023-05-07T00:20:58;7.10;;;5.40;;
11100;SDS011;5604;50.722;7.078;2023-05-07T00:23:26;5.20;;;4.70;;
11100;SDS011;5604;50.722;7.078;2023-05-07T00:25:54;5.63;;;4.30;;
11100;SDS011;5604;50.722;7.078;2023-05-07T00:28:24;5.47;;;4.60;;
11100;SDS011;5604;50.722;7.078;2023-05-07T00:30:52;5.40;;;4.73;;
11100;SDS011;5604;50.722;7.078;2023-05-07T00:33:20;4.97;;;4.53;;
11100;SDS011;5604;50.722;7.078;2023-05-07T00:35:48;5.00;;;4.07;;
11100;SDS011;5604;50.722;7.078;2023-05-07T00:38:17;5.30;;;4.50;;
11100;SDS011;5604;50.722;7.078;2023-05-07T00:40:45;6.50;;;4.60;;
11100;SDS011;5604;50.722;7.078;2023-05-07T00:43:13;5.43;;;4.67;;
11100;SDS011;5604;50.722;7.078;2023-05-07T00:45:42;5.40;;;4.90;;
11100;SDS011;5604;50.722;7.078;2023-05-07T00:48:11;6.60;;;4.93;;
11100;SDS011;5604;50.722;7.078;2023-05-07T00:50:39;5.53;;;4.53;;
11100;SDS011;5604;50.722;7.078;2023-05-07T00:53:07;4.63;;;4.20;;
11100;SDS011;5604;50.722;7.078;2023-05-07T00:55:35;7.00;;;5.13;;
11100;SDS011;5604;50.722;7.078;2023-05-07T00:58:03;5.53;;;4.63;;
11100;SDS011;5604;50.722;7.078;2023-05-07T01:00:33;6.33;;;4.60;;
11100;SDS011;5604;50.722;7.078;2023-05-07T01:03:03;6.60;;;5.03;;
11100;SDS011;5604;50.722;7.078;2023-05-07T01:05:33;5.87;;;4.60;;
11100;SDS011;5604;50.722;7.078;2023-05-07T01:08:01;5.20;;;4.50;;
11100;SDS011;5604;50.722;7.078;2023-05-07T01:10:30;5.73;;;5.00;;
11100;SDS011;5604;50.722;7.078;2023-05-07T01:12:58;5.33;;;4.83;;
11100;SDS011;5604;50.722;7.078;2023-05-07T01:15:26;6.13;;;5.63;;
11100;SDS011;5604;50.722;7.078;2023-05-07T01:17:55;6.00;;;5.07;;
11100;SDS011;5604;50.722;7.078;2023-05-07T01:20:31;5.07;;;4.53;;
11100;SDS011;5604;50.722;7.078;2023-05-07T01:23:01;5.33;;;4.87;;
11100;SDS011;5604;50.722;7.078;2023-05-07T01:25:31;5.10;;;4.50;;
11100;SDS011;5604;50.722;7.078;2023-05-07T01:28:00;4.70;;;4.37;;
11100;SDS011;5604;50.722;7.078;2023-05-07T01:30:32;5.33;;;4.47;;
11100;SDS011;5604;50.722;7.078;2023-05-07T01:33:06;5.20;;;4.50;;
11100;SDS011;5604;50.722;7.078;2023-05-07T01:35:37;4.80;;;4.30;;
11100;SDS011;5604;50.722;7.078;2023-05-07T01:38:08;5.30;;;4.80;;
11100;SDS011;5604;50.722;7.078;2023-05-07T01:40:36;4.97;;;4.47;;
11100;SDS011;5604;50.722;7.078;2023-05-07T01:43:05;4.70;;;4.40;;
11100;SDS011;5604;50.722;7.078;2023-05-07T01:45:36;4.87;;;4.47;;
11100;SDS011;5604;50.722;7.078;2023-05-07T01:48:05;7.40;;;5.13;;
11100;SDS011;5604;50.722;7.078;2023-05-07T01:50:34;5.03;;;4.63;;
11100;SDS011;5604;50.722;7.078;2023-05-07T01:53:02;5.17;;;4.77;;
11100;SDS011;5604;50.722;7.078;2023-05-07T01:55:32;5.53;;;4.97;;
11100;SDS011;5604;50.722;7.078;2023-05-07T01:58:00;5.50;;;5.03;;
11100;SDS011;5604;50.722;7.078;2023-05-07T02:00:28;5.60;;;5.10;;
11100;SDS011;5604;50.722;7.078;2023-05-07T02:02:56;6.10;;;5.50;;
11100;SDS011;5604;50.722;7.078;2023-05-07T02:05:36;5.40;;;4.90;;
11100;SDS011;5604;50.722;7.078;2023-05-07T02:08:25;6.10;;;5.50;;
11100;SDS011;5604;50.722;7.078;2023-05-07T02:10:55;5.83;;;5.33;;
11100;SDS011;5604;50.722;7.078;2023-05-07T02:13:25;6.83;;;6.17;;
11100;SDS011;5604;50.722;7.078;2023-05-07T02:15:54;6.90;;;5.90;;
11100;SDS011;5604;50.722;7.078;2023-05-07T02:18:23;7.10;;;5.97;;
11100;SDS011;5604;50.722;7.078;2023-05-07T02:20:51;9.23;;;6.30;;
11100;SDS011;5604;50.722;7.078;2023-05-07T02:23:19;6.97;;;6.27;;
11100;SDS011;5604;50.722;7.078;2023-05-07T02:25:48;6.33;;;5.57;;
11100;SDS011;5604;50.722;7.078;2023-05-07T02:28:17;7.13;;;6.00;;
11100;SDS011;5604;50.722;7.078;2023-05-07T02:31:01;10.00;;;6.43;;
11100;SDS011;5604;50.722;7.078;2023-05-07T02:33:30;8.23;;;6.27;;
11100;SDS011;5604;50.722;7.078;2023-05-07T02:36:04;8.07;;;6.17;;
11100;SDS011;5604;50.722;7.078;2023-05-07T02:38:34;8.27;;;7.47;;
11100;SDS011;5604;50.722;7.078;2023-05-07T02:41:03;7.70;;;7.00;;
11100;SDS011;5604;50.722;7.078;2023-05-07T02:43:33;8.93;;;7.60;;
11100;SDS011;5604;50.722;7.078;2023-05-07T02:46:01;8.23;;;7.40;;
11100;SDS011;5604;50.722;7.078;2023-05-07T02:48:31;7.57;;;6.87;;
11100;SDS011;5604;50.722;7.078;2023-05-07T02:50:59;8.67;;;7.77;;
11100;SDS011;5604;50.722;7.078;2023-05-07T02:53:29;8.37;;;7.40;;
11100;SDS011;5604;50.722;7.078;2023-05-07T02:55:57;8.47;;;6.47;;
11100;SDS011;5604;50.722;7.078;2023-05-07T02:58:26;8.13;;;6.70;;
11100;SDS011;5604;50.722;7.078;2023-05-07T03:01:00;9.40;;;6.93;;
11100;SDS011;5604;50.722;7.078;2023-05-07T03:03:38;8.80;;;6.67;;
11100;SDS011;5604;50.722;7.078;2023-05-07T03:06:07;8.07;;;7.30;;
11100;SDS011;5604;50.722;7.078;2023-05-07T03:08:35;8.63;;;7.43;;
11100;SDS011;5604;50.722;7.078;2023-05-07T03:11:04;7.80;;;7.00;;
11100;SDS011;5604;50.722;7.078;2023-05-07T03:13:32;9.40;;;6.60;;
11100;SDS011;5604;50.722;7.078;2023-05-07T03:16:01;9.80;;;7.20;;
11100;SDS011;5604;50.722;7.078;2023-05-07T03:18:29;11.70;;;7.80;;
11100;SDS011;5604;50.722;7.078;2023-05-07T03:20:57;9.07;;;8.17;;
11100;SDS011;5604;50.722;7.078;2023-05-07T03:23:25;11.50;;;8.37;;
11100;SDS011;5604;50.722;7.078;2023-05-07T03:25:53;8.87;;;7.97;;
11100;SDS011;5604;50.722;7.078;2023-05-07T03:28:21;10.67;;;9.60;;
11100;SDS011;5604;50.722;7.078;2023-05-07T03:30:55;12.83;;;9.13;;
11100;SDS011;5604;50.722;7.078;2023-05-07T03:33:25;12.40;;;9.60;;
11100;SDS011;5604;50.722;7.078;2023-05-07T03:35:54;10.73;;;9.83;;
11100;SDS011;5604;50.722;7.078;2023-05-07T03:38:24;10.93;;;9.43;;
11100;SDS011;5604;50.722;7.078;2023-05-07T03:40:52;10.80;;;8.43;;
11100;SDS011;5604;50.722;7.078;2023-05-07T03:43:20;9.17;;;8.27;;
11100;SDS011;5604;50.722;7.078;2023-05-07T03:45:56;8.77;;;7.87;;
11100;SDS011;5604;50.722;7.078;2023-05-07T03:48:28;10.37;;;7.80;;
11100;SDS011;5604;50.722;7.078;2023-05-07T03:50:58;9.73;;;7.80;;
11100;SDS011;5604;50.722;7.078;2023-05-07T03:53:30;9.30;;;8.40;;
11100;SDS011;5604;50.722;7.078;2023-05-07T03:55:58;9.70;;;7.80;;
11100;SDS011;5604;50.722;7.078;2023-05-07T03:58:29;9.17;;;7.43;;
11100;SDS011;5604;50.722;7.078;2023-05-07T04:01:03;10.07;;;8.20;;
11100;SDS011;5604;50.722;7.078;2023-05-07T04:03:32;9.40;;;7.57;;
11100;SDS011;5604;50.722;7.078;2023-05-07T04:06:01;8.07;;;7.37;;
11100;SDS011;5604;50.722;7.078;2023-05-07T04:08:31;8.37;;;7.57;;
11100;SDS011;5604;50.722;7.078;2023-05-07T04:10:59;9.60;;;8.60;;
11100;SDS011;5604;50.722;7.078;2023-05-07T04:13:30;10.07;;;9.07;;
11100;SDS011;5604;50.722;7.078;2023-05-07T04:16:01;9.47;;;8.57;;
11100;SDS011;5604;50.722;7.078;2023-05-07T04:18:30;9.50;;;8.50;;
11100;SDS011;5604;50.722;7.078;2023-05-07T04:21:00;10.20;;;8.67;;
11100;SDS011;5604;50.722;7.078;2023-05-07T04:23:28;9.90;;;8.93;;
11100;SDS011;5604;50.722;7.078;2023-05-07T04:25:59;10.23;;;9.27;;
11100;SDS011;5604;50.722;7.078;2023-05-07T04:28:33;10.43;;;9.50;;
11100;SDS011;5604;50.722;7.078;2023-05-07T04:31:01;10.70;;;9.57;;
11100;SDS011;5604;50.722;7.078;2023-05-07T04:33:32;10.43;;;9.33;;
11100;SDS011;5604;50.722;7.078;2023-05-07T04:36:02;11.27;;;9.90;;
11100;SDS011;5604;50.722;7.078;2023-05-07T04:38:35;11.37;;;9.90;;
11100;SDS011;5604;50.722;7.078;2023-05-07T04:41:04;12.20;;;10.27;;
11100;SDS011;5604;50.722;7.078;2023-05-07T04:43:37;11.43;;;10.23;;
11100;SDS011;5604;50.722;7.078;2023-05-07T04:46:06;12.10;;;9.60;;
11100;SDS011;5604;50.722;7.078;2023-05-07T04:48:36;10.33;;;9.33;;
11100;SDS011;5604;50.722;7.078;2023-05-07T04:51:05;11.67;;;9.87;;
11100;SDS011;5604;50.722;7.078;2023-05-07T04:53:33;11.27;;;10.17;;
11100;SDS011;5604;50.722;7.078;2023-05-07T04:56:02;11.63;;;10.10;;
11100;SDS011;5604;50.722;7.078;2023-05-07T04:58:37;13.00;;;10.67;;
11100;SDS011;5604;50.722;7.078;2023-05-07T05:01:05;12.37;;;10.53;;
11100;SDS011;5604;50.722;7.078;2023-05-07T05:03:33;13.00;;;10.07;;
11100;SDS011;5604;50.722;7.078;2023-05-07T05:06:03;12.80;;;10.37;;
11100;SDS011;5604;50.722;7.078;2023-05-07T05:08:33;11.90;;;10.60;;
11100;SDS011;5604;50.722;7.078;2023-05-07T05:11:03;11.10;;;9.83;;
11100;SDS011;5604;50.722;7.078;2023-05-07T05:13:33;11.30;;;10.20;;
11100;SDS011;5604;50.722;7.078;2023-05-07T05:16:08;12.10;;;10.23;;
11100;SDS011;5604;50.722;7.078;2023-05-07T05:18:37;11.63;;;10.27;;
11100;SDS011;5604;50.722;7.078;2023-05-07T05:21:06;11.07;;;9.97;;
11100;SDS011;5604;50.722;7.078;2023-05-07T05:23:35;11.30;;;9.77;;
11100;SDS011;5604;50.722;7.078;2023-05-07T05:26:03;10.80;;;9.33;;
11100;SDS011;5604;50.722;7.078;2023-05-07T05:28:32;10.67;;;9.50;;
11100;SDS011;5604;50.722;7.078;2023-05-07T05:31:01;9.60;;;8.70;;
11100;SDS011;5604;50.722;7.078;2023-05-07T05:33:33;9.37;;;8.53;;
11100;SDS011;5604;50.722;7.078;2023-05-07T05:36:04;9.37;;;8.53;;
11100;SDS011;5604;50.722;7.078;2023-05-07T05:38:34;9.17;;;8.27;;
11100;SDS011;5604;50.722;7.078;2023-05-07T05:41:03;10.33;;;8.13;;
11100;SDS011;5604;50.722;7.078;2023-05-07T05:43:31;9.23;;;8.00;;
11100;SDS011;5604;50.722;7.078;2023-05-07T05:46:00;9.23;;;8.33;;
11100;SDS011;5604;50.722;7.078;2023-05-07T05:48:29;8.53;;;7.73;;
11100;SDS011;5604;50.722;7.078;2023-05-07T05:50:59;9.20;;;8.17;;
11100;SDS011;5604;50.722;7.078;2023-05-07T05:53:28;8.37;;;7.57;;
11100;SDS011;5604;50.722;7.078;2023-05-07T05:55:58;8.97;;;7.67;;
11100;SDS011;5604;50.722;7.078;2023-05-07T05:58:28;10.27;;;7.33;;
11100;SDS011;5604;50.722;7.078;2023-05-07T06:01:00;9.23;;;7.60;;
11100;SDS011;5604;50.722;7.078;2023-05-07T06:03:29;8.23;;;6.73;;
11100;SDS011;5604;50.722;7.078;2023-05-07T06:06:02;6.23;;;5.67;;
11100;SDS011;5604;50.722;7.078;2023-05-07T06:08:31;6.17;;;5.53;;
11100;SDS011;5604;50.722;7.078;2023-05-07T06:11:01;8.03;;;5.67;;
11100;SDS011;5604;50.722;7.078;2023-05-07T06:13:33;6.10;;;5.40;;
11100;SDS011;5604;50.722;7.078;2023-05-07T06:16:01;6.60;;;5.20;;
11100;SDS011;5604;50.722;7.078;2023-05-07T06:18:30;7.33;;;6.03;;
11100;SDS011;5604;50.722;7.078;2023-05-07T06:20:58;5.67;;;5.07;;
11100;SDS011;5604;50.722;7.078;2023-05-07T06:23:30;5.17;;;4.77;;
11100;SDS011;5604;50.722;7.078;2023-05-07T06:25:59;6.73;;;4.50;;
11100;SDS011;5604;50.722;7.078;2023-05-07T06:28:34;6.00;;;5.40;;
11100;SDS011;5604;50.722;7.078;2023-05-07T06:31:13;6.33;;;4.73;;
11100;SDS011;5604;50.722;7.078;2023-05-07T06:33:46;6.63;;;4.90;;
11100;SDS011;5604;50.722;7.078;2023-05-07T06:36:15;4.60;;;4.20;;
11100;SDS011;5604;50.722;7.078;2023-05-07T06:38:44;6.27;;;3.83;;
11100;SDS011;5604;50.722;7.078;2023-05-07T06:41:12;4.50;;;4.10;;
11100;SDS011;5604;50.722;7.078;2023-05-07T06:43:42;4.97;;;4.57;;
11100;SDS011;5604;50.722;7.078;2023-05-07T06:46:29;4.57;;;4.17;;
11100;SDS011;5604;50.722;7.078;2023-05-07T06:49:03;4.77;;;4.20;;
11100;SDS011;5604;50.722;7.078;2023-05-07T06:51:42;5.30;;;3.90;;
11100;SDS011;5604;50.722;7.078;2023-05-07T06:54:11;4.73;;;4.10;;
11100;SDS011;5604;50.722;7.078;2023-05-07T06:56:40;5.83;;;3.80;;
11100;SDS011;5604;50.722;7.078;2023-05-07T06:59:10;4.30;;;3.90;;
11100;SDS011;5604;50.722;7.078;2023-05-07T07:01:40;5.10;;;3.77;;
11100;SDS011;5604;50.722;7.078;2023-05-07T07:04:09;3.97;;;3.63;;
11100;SDS011;5604;50.722;7.078;2023-05-07T07:06:40;5.10;;;4.20;;
11100;SDS011;5604;50.722;7.078;2023-05-07T07:09:11;4.47;;;4.07;;
11100;SDS011;5604;50.722;7.078;2023-05-07T07:11:40;4.20;;;3.73;;
11100;SDS011;5604;50.722;7.078;2023-05-07T07:14:08;5.13;;;3.50;;
11100;SDS011;5604;50.722;7.078;2023-05-07T07:16:45;5.00;;;3.80;;
11100;SDS011;5604;50.722;7.078;2023-05-07T07:19:16;6.00;;;3.70;;
11100;SDS011;5604;50.722;7.078;2023-05-07T07:21:46;4.43;;;3.00;;
11100;SDS011;5604;50.722;7.078;2023-05-07T07:24:14;3.33;;;3.03;;
11100;SDS011;5604;50.722;7.078;2023-05-07T07:26:52;4.00;;;3.20;;
11100;SDS011;5604;50.722;7.078;2023-05-07T07:29:23;3.20;;;2.90;;
11100;SDS011;5604;50.722;7.078;2023-05-07T07:31:55;3.03;;;2.70;;
11100;SDS011;5604;50.722;7.078;2023-05-07T07:34:25;3.93;;;3.20;;
11100;SDS011;5604;50.722;7.078;2023-05-07T07:37:00;3.70;;;3.10;;
11100;SDS011;5604;50.722;7.078;2023-05-07T07:39:33;3.23;;;2.90;;
11100;SDS011;5604;50.722;7.078;2023-05-07T07:42:05;2.97;;;2.60;;
11100;SDS011;5604;50.722;7.078;2023-05-07T07:44:33;4.97;;;3.17;;
11100;SDS011;5604;50.722;7.078;2023-05-07T07:47:07;4.00;;;3.10;;
11100;SDS011;5604;50.722;7.078;2023-05-07T07:49:36;2.93;;;2.63;;
11100;SDS011;5604;50.722;7.078;2023-05-07T07:52:05;3.30;;;2.47;;
11100;SDS011;5604;50.722;7.078;2023-05-07T07:54:35;2.90;;;2.30;;
11100;SDS011;5604;50.722;7.078;2023-05-07T07:57:06;3.33;;;2.53;;
11100;SDS011;5604;50.722;7.078;2023-05-07T07:59:34;6.73;;;3.00;;
11100;SDS011;5604;50.722;7.078;2023-05-07T08:02:07;3.87;;;2.27;;
11100;SDS011;5604;50.722;7.078;2023-05-07T08:04:36;3.23;;;2.43;;
11100;SDS011;5604;50.722;7.078;2023-05-07T08:07:06;2.80;;;2.10;;
11100;SDS011;5604;50.722;7.078;2023-05-07T08:09:38;3.03;;;2.37;;
11100;SDS011;5604;50.722;7.078;2023-05-07T08:12:07;3.63;;;2.30;;
11100;SDS011;5604;50.722;7.078;2023-05-07T08:14:37;2.93;;;2.47;;
11100;SDS011;5604;50.722;7.078;2023-05-07T08:17:08;3.80;;;2.30;;
11100;SDS011;5604;50.722;7.078;2023-05-07T08:19:37;3.17;;;2.40;;
11100;SDS011;5604;50.722;7.078;2023-05-07T08:22:07;3.17;;;2.33;;
11100;SDS011;5604;50.722;7.078;2023-05-07T08:24:36;3.13;;;2.17;;
11100;SDS011;5604;50.722;7.078;2023-05-07T08:27:04;2.33;;;1.97;;
11100;SDS011;5604;50.722;7.078;2023-05-07T08:29:33;3.33;;;2.23;;
11100;SDS011;5604;50.722;7.078;2023-05-07T08:32:02;3.80;;;2.13;;
11100;SDS011;5604;50.722;7.078;2023-05-07T08:34:32;3.70;;;2.30;;
11100;SDS011;5604;50.722;7.078;2023-05-07T08:37:03;3.13;;;1.93;;
11100;SDS011;5604;50.722;7.078;2023-05-07T08:39:31;2.60;;;2.20;;
11100;SDS011;5604;50.722;7.078;2023-05-07T08:42:00;3.43;;;1.93;;
11100;SDS011;5604;50.722;7.078;2023-05-07T08:44:32;3.63;;;1.80;;
11100;SDS011;5604;50.722;7.078;2023-05-07T08:47:01;4.67;;;2.20;;
11100;SDS011;5604;50.722;7.078;2023-05-07T08:49:32;3.37;;;2.00;;
11100;SDS011;5604;50.722;7.078;2023-05-07T08:52:01;2.27;;;1.70;;
11100;SDS011;5604;50.722;7.078;2023-05-07T08:54:29;2.03;;;1.83;;
11100;SDS011;5604;50.722;7.078;2023-05-07T08:56:59;2.30;;;2.00;;
11100;SDS011;5604;50.722;7.078;2023-05-07T08:59:28;2.37;;;1.97;;
11100;SDS011;5604;50.722;7.078;2023-05-07T09:01:56;4.37;;;2.20;;
11100;SDS011;5604;50.722;7.078;2023-05-07T09:04:25;2.37;;;1.97;;
11100;SDS011;5604;50.722;7.078;2023-05-07T09:06:56;3.10;;;2.17;;
11100;SDS011;5604;50.722;7.078;2023-05-07T09:09:32;3.20;;;1.80;;
11100;SDS011;5604;50.722;7.078;2023-05-07T09:12:02;3.07;;;2.07;;
11100;SDS011;5604;50.722;7.078;2023-05-07T09:14:34;3.70;;;2.20;;
11100;SDS011;5604;50.722;7.078;2023-05-07T09:17:03;2.27;;;2.07;;
11100;SDS011;5604;50.722;7.078;2023-05-07T09:19:32;2.23;;;1.90;;
11100;SDS011;5604;50.722;7.078;2023-05-07T09:22:12;1.83;;;1.73;;
11100;SDS011;5604;50.722;7.078;2023-05-07T09:24:53;4.07;;;1.67;;
11100;SDS011;5604;50.722;7.078;2023-05-07T09:27:24;4.30;;;1.83;;
11100;SDS011;5604;50.722;7.078;2023-05-07T09:29:57;4.23;;;1.83;;
11100;SDS011;5604;50.722;7.078;2023-05-07T09:32:29;1.80;;;1.53;;
11100;SDS011;5604;50.722;7.078;2023-05-07T09:34:58;2.17;;;1.50;;
11100;SDS011;5604;50.722;7.078;2023-05-07T09:37:34;3.23;;;1.90;;
11100;SDS011;5604;50.722;7.078;2023-05-07T09:40:04;2.03;;;1.73;;
11100;SDS011;5604;50.722;7.078;2023-05-07T09:42:34;3.27;;;2.10;;
11100;SDS011;5604;50.722;7.078;2023-05-07T09:45:05;2.03;;;1.93;;
11100;SDS011;5604;50.722;7.078;2023-05-07T09:47:36;1.87;;;1.53;;
11100;SDS011;5604;50.722;7.078;2023-05-07T09:50:06;1.87;;;1.73;;
11100;SDS011;5604;50.722;7.078;2023-05-07T09:52:39;3.93;;;1.80;;
11100;SDS011;5604;50.722;7.078;2023-05-07T09:55:09;1.60;;;1.40;;
11100;SDS011;5604;50.722;7.078;2023-05-07T09:57:39;2.97;;;1.63;;
11100;SDS011;5604;50.722;7.078;2023-05-07T19:22:41;9.47;;;7.13;;
11100;SDS011;5604;50.722;7.078;2023-05-07T19:25:12;10.77;;;8.50;;
11100;SDS011;5604;50.722;7.078;2023-05-07T19:27:40;11.87;;;8.53;;
11100;SDS011;5604;50.722;7.078;2023-05-07T19:30:08;9.73;;;8.43;;
11100;SDS011;5604;50.722;7.078;2023-05-07T19:32:37;11.30;;;8.67;;
11100;SDS011;5604;50.722;7.078;2023-05-07T19:35:08;9.30;;;8.03;;
11100;SDS011;5604;50.722;7.078;2023-05-07T19:37:37;8.97;;;8.07;;
11100;SDS011;5604;50.722;7.078;2023-05-07T19:40:08;11.63;;;8.73;;
11100;SDS011;5604;50.722;7.078;2023-05-07T19:42:38;9.20;;;8.27;;
11100;SDS011;5604;50.722;7.078;2023-05-07T19:45:13;11.97;;;9.00;;
11100;SDS011;5604;50.722;7.078;2023-05-07T19:47:42;12.87;;;9.07;;
11100;SDS011;5604;50.722;7.078;2023-05-07T19:50:10;12.07;;;8.87;;
11100;SDS011;5604;50.722;7.078;2023-05-07T19:52:39;10.43;;;9.40;;
11100;SDS011;5604;50.722;7.078;2023-05-07T19:55:10;11.60;;;9.17;;
11100;SDS011;5604;50.722;7.078;2023-05-07T19:57:39;10.30;;;9.17;;
11100;SDS011;5604;50.722;7.078;2023-05-07T20:00:08;10.37;;;8.93;;
11100;SDS011;5604;50.722;7.078;2023-05-07T20:02:40;11.93;;;8.93;;
11100;SDS011;5604;50.722;7.078;2023-05-07T20:06:19;10.40;;;8.13;;
11100;SDS011;5604;50.722;7.078;2023-05-07T20:08:30;10.00;;;8.10;;
11100;SDS011;5604;50.722;7.078;2023-05-07T20:11:00;11.13;;;9.82;;
11100;SDS011;5604;50.722;7.078;2023-05-07T20:13:28;9.33;;;8.53;;
11100;SDS011;5604;50.722;7.078;2023-05-07T20:15:57;9.60;;;8.67;;
11100;SDS011;5604;50.722;7.078;2023-05-07T20:18:28;7.83;;;6.97;;
11100;SDS011;5604;50.722;7.078;2023-05-07T20:20:58;8.07;;;6.83;;
11100;SDS011;5604;50.722;7.078;2023-05-07T20:23:27;8.20;;;7.40;;
11100;SDS011;5604;50.722;7.078;2023-05-07T20:25:58;8.03;;;7.23;;
11100;SDS011;5604;50.722;7.078;2023-05-07T20:28:27;7.80;;;7.00;;
11100;SDS011;5604;50.722;7.078;2023-05-07T20:31:00;8.87;;;6.50;;
11100;SDS011;5604;50.722;7.078;2023-05-07T20:36:33;7.80;;;7.00;;
11100;SDS011;5604;50.722;7.078;2023-05-07T20:39:43;7.90;;;6.50;;
11100;SDS011;5604;50.722;7.078;2023-05-07T20:42:31;7.07;;;5.77;;
11100;SDS011;5604;50.722;7.078;2023-05-07T20:45:34;6.10;;;5.50;;
11100;SDS011;5604;50.722;7.078;2023-05-07T20:48:22;7.10;;;6.50;;
11100;SDS011;5604;50.722;7.078;2023-05-07T20:52:47;7.03;;;5.37;;
11100;SDS011;5604;50.722;7.078;2023-05-07T20:55:51;8.83;;;5.93;;
11100;SDS011;5604;50.722;7.078;2023-05-07T20:58:27;6.80;;;6.10;;
11100;SDS011;5604;50.722;7.078;2023-05-07T21:04:06;8.93;;;5.47;;
11100;SDS011;5604;50.722;7.078;2023-05-07T21:12:37;5.40;;;4.87;;
11100;SDS011;5604;50.722;7.078;2023-05-07T21:15:08;4.87;;;4.37;;
11100;SDS011;5604;50.722;7.078;2023-05-07T21:17:37;6.90;;;4.67;;
11100;SDS011;5604;50.722;7.078;2023-05-07T21:20:06;5.40;;;4.40;;
11100;SDS011;5604;50.722;7.078;2023-05-07T21:25:59;5.13;;;4.53;;
11100;SDS011;5604;50.722;7.078;2023-05-07T21:28:42;5.80;;;4.67;;
11100;SDS011;5604;50.722;7.078;2023-05-07T21:31:25;5.30;;;4.80;;
11100;SDS011;5604;50.722;7.078;2023-05-07T21:33:55;6.73;;;4.60;;
11100;SDS011;5604;50.722;7.078;2023-05-07T21:36:24;5.87;;;4.40;;
11100;SDS011;5604;50.722;7.078;2023-05-07T21:39:01;8.87;;;4.77;;
11100;SDS011;5604;50.722;7.078;2023-05-07T21:41:30;5.00;;;4.50;;
11100;SDS011;5604;50.722;7.078;2023-05-07T21:44:06;4.53;;;3.90;;
11100;SDS011;5604;50.722;7.078;2023-05-07T21:46:38;7.40;;;4.60;;
11100;SDS011;5604;50.722;7.078;2023-05-07T21:49:06;5.23;;;4.60;;
11100;SDS011;5604;50.722;7.078;2023-05-07T21:51:34;6.20;;;4.37;;
11100;SDS011;5604;50.722;7.078;2023-05-07T21:54:03;5.60;;;4.87;;
11100;SDS011;5604;50.722;7.078;2023-05-07T21:56:32;4.50;;;4.17;;
11100;SDS011;5604;50.722;7.078;2023-05-07T21:59:00;6.40;;;4.73;;
11100;SDS011;5604;50.722;7.078;2023-05-07T22:01:28;5.57;;;4.70;;
11100;SDS011;5604;50.722;7.078;2023-05-07T22:03:58;5.67;;;5.13;;
11100;SDS011;5604;50.722;7.078;2023-05-07T22:06:26;6.43;;;5.10;;
11100;SDS011;5604;50.722;7.078;2023-05-07T22:08:55;5.53;;;4.77;;
11100;SDS011;5604;50.722;7.078;2023-05-07T22:11:23;8.13;;;7.43;;
11100;SDS011;5604;50.722;7.078;2023-05-07T22:13:51;7.43;;;6.73;;
11100;SDS011;5604;50.722;7.078;2023-05-07T22:16:19;7.47;;;6.50;;
11100;SDS011;5604;50.722;7.078;2023-05-07T22:18:47;6.97;;;6.23;;
11100;SDS011;5604;50.722;7.078;2023-05-07T22:21:17;7.00;;;6.30;;
11100;SDS011;5604;50.722;7.078;2023-05-07T22:23:45;9.37;;;6.87;;
11100;SDS011;5604;50.722;7.078;2023-05-07T22:26:14;11.13;;;8.07;;
11100;SDS011;5604;50.722;7.078;2023-05-07T22:28:42;7.67;;;6.87;;
11100;SDS011;5604;50.722;7.078;2023-05-07T22:31:10;8.17;;;7.47;;
11100;SDS011;5604;50.722;7.078;2023-05-07T22:33:38;8.77;;;7.93;;
11100;SDS011;5604;50.722;7.078;2023-05-07T22:36:07;11.00;;;7.63;;
11100;SDS011;5604;50.722;7.078;2023-05-07T22:38:36;8.63;;;7.73;;
11100;SDS011;5604;50.722;7.078;2023-05-07T22:41:04;9.20;;;8.17;;
11100;SDS011;5604;50.722;7.078;2023-05-07T22:43:33;8.77;;;7.97;;
11100;SDS011;5604;50.722;7.078;2023-05-07T22:46:01;9.60;;;7.87;;
11100;SDS011;5604;50.722;7.078;2023-05-07T22:48:29;11.03;;;8.43;;
11100;SDS011;5604;50.722;7.078;2023-05-07T22:50:59;9.53;;;7.93;;
11100;SDS011;5604;50.722;7.078;2023-05-07T22:53:27;10.17;;;9.07;;
11100;SDS011;5604;50.722;7.078;2023-05-07T22:55:57;14.30;;;9.00;;
11100;SDS011;5604;50.722;7.078;2023-05-07T22:58:25;12.67;;;10.93;;
11100;SDS011;5604;50.722;7.078;2023-05-07T23:00:53;12.23;;;11.03;;
11100;SDS011;5604;50.722;7.078;2023-05-07T23:03:21;11.67;;;10.57;;
11100;SDS011;5604;50.722;7.078;2023-05-07T23:05:49;12.47;;;11.07;;
11100;SDS011;5604;50.722;7.078;2023-05-07T23:08:19;12.43;;;11.00;;
11100;SDS011;5604;50.722;7.078;2023-05-07T23:10:47;11.83;;;10.73;;
11100;SDS011;5604;50.722;7.078;2023-05-07T23:13:16;11.63;;;10.43;;
11100;SDS011;5604;50.722;7.078;2023-05-07T23:15:44;12.63;;;10.90;;
11100;SDS011;5604;50.722;7.078;2023-05-07T23:18:13;13.20;;;11.87;;
11100;SDS011;5604;50.722;7.078;2023-05-07T23:20:41;12.00;;;10.80;;
11100;SDS011;5604;50.722;7.078;2023-05-07T23:23:09;12.93;;;10.53;;
11100;SDS011;5604;50.722;7.078;2023-05-07T23:25:38;10.70;;;9.70;;
11100;SDS011;5604;50.722;7.078;2023-05-07T23:28:06;11.00;;;10.00;;
11100;SDS011;5604;50.722;7.078;2023-05-07T23:30:36;12.57;;;10.30;;
11100;SDS011;5604;50.722;7.078;2023-05-07T23:33:04;11.20;;;10.07;;
11100;SDS011;5604;50.722;7.078;2023-05-07T23:35:32;11.37;;;10.20;;
11100;SDS011;5604;50.722;7.078;2023-05-07T23:38:00;11.73;;;10.40;;
11100;SDS011;5604;50.722;7.078;2023-05-07T23:40:29;11.07;;;10.07;;
11100;SDS011;5604;50.722;7.078;2023-05-07T23:42:57;11.70;;;10.50;;
11100;SDS011;5604;50.722;7.078;2023-05-07T23:45:25;10.50;;;9.50;;
11100;SDS011;5604;50.722;7.078;2023-05-07T23:47:54;11.30;;;10.30;;
11100;SDS011;5604;50.722;7.078;2023-05-07T23:50:22;11.50;;;10.00;;
11100;SDS011;5604;50.722;7.078;2023-05-07T23:52:51;12.40;;;10.13;;
11100;SDS011;5604;50.722;7.078;2023-05-07T23:55:19;10.93;;;9.80;;
11100;SDS011;5604;50.722;7.078;2023-05-07T23:57:47;11.80;;;10.70;;
